sensor_id;sensor_type;location;lat;lon;timestamp;P1;durP1;ratioP1;P2;durP2;ratioP2
77278;SDS011;66332;50.436;15.378;2024-03-25T00:03:32;7.50;;;2.85;;
77278;SDS011;66332;50.436;15.378;2024-03-25T00:12:55;7.05;;;2.70;;
77278;SDS011;66332;50.436;15.378;2024-03-25T00:17:37;8.00;;;2.90;;
77278;SDS011;66332;50.436;15.378;2024-03-25T00:22:18;8.52;;;3.13;;
77278;SDS011;66332;50.436;15.378;2024-03-25T00:31:40;8.38;;;3.03;;
77278;SDS011;66332;50.436;15.378;2024-03-25T00:36:21;8.10;;;3.28;;
77278;SDS011;66332;50.436;15.378;2024-03-25T00:41:03;7.57;;;2.90;;
77278;SDS011;66332;50.436;15.378;2024-03-25T00:45:44;9.05;;;3.40;;
77278;SDS011;66332;50.436;15.378;2024-03-25T00:50:26;7.97;;;2.67;;
77278;SDS011;66332;50.436;15.378;2024-03-25T00:55:07;6.97;;;2.83;;
77278;SDS011;66332;50.436;15.378;2024-03-25T00:59:48;7.28;;;2.63;;
77278;SDS011;66332;50.436;15.378;2024-03-25T01:04:29;6.78;;;2.60;;
77278;SDS011;66332;50.436;15.378;2024-03-25T01:09:10;6.32;;;2.40;;
77278;SDS011;66332;50.436;15.378;2024-03-25T01:13:51;6.05;;;2.35;;
77278;SDS011;66332;50.436;15.378;2024-03-25T01:18:32;5.60;;;2.33;;
77278;SDS011;66332;50.436;15.378;2024-03-25T01:23:13;5.45;;;1.98;;
77278;SDS011;66332;50.436;15.378;2024-03-25T01:27:54;6.90;;;2.00;;
77278;SDS011;66332;50.436;15.378;2024-03-25T01:32:35;5.55;;;2.05;;
77278;SDS011;66332;50.436;15.378;2024-03-25T01:37:15;4.80;;;1.60;;
77278;SDS011;66332;50.436;15.378;2024-03-25T01:41:56;5.60;;;1.90;;
77278;SDS011;66332;50.436;15.378;2024-03-25T01:46:37;7.40;;;2.45;;
77278;SDS011;66332;50.436;15.378;2024-03-25T01:51:20;6.65;;;2.28;;
77278;SDS011;66332;50.436;15.378;2024-03-25T01:56:02;6.72;;;2.22;;
77278;SDS011;66332;50.436;15.378;2024-03-25T02:00:44;6.47;;;2.47;;
77278;SDS011;66332;50.436;15.378;2024-03-25T02:05:24;5.22;;;2.03;;
77278;SDS011;66332;50.436;15.378;2024-03-25T02:10:06;6.22;;;2.60;;
77278;SDS011;66332;50.436;15.378;2024-03-25T02:14:47;7.45;;;2.75;;
77278;SDS011;66332;50.436;15.378;2024-03-25T02:19:28;6.18;;;2.28;;
77278;SDS011;66332;50.436;15.378;2024-03-25T02:24:11;5.55;;;2.13;;
77278;SDS011;66332;50.436;15.378;2024-03-25T02:28:52;6.82;;;2.67;;
77278;SDS011;66332;50.436;15.378;2024-03-25T02:33:33;5.35;;;2.00;;
77278;SDS011;66332;50.436;15.378;2024-03-25T02:38:14;6.88;;;2.25;;
77278;SDS011;66332;50.436;15.378;2024-03-25T02:42:58;8.45;;;2.72;;
77278;SDS011;66332;50.436;15.378;2024-03-25T02:47:39;8.07;;;2.60;;
77278;SDS011;66332;50.436;15.378;2024-03-25T02:52:20;7.55;;;2.80;;
77278;SDS011;66332;50.436;15.378;2024-03-25T02:57:01;7.18;;;2.03;;
77278;SDS011;66332;50.436;15.378;2024-03-25T03:01:42;6.38;;;2.42;;
77278;SDS011;66332;50.436;15.378;2024-03-25T03:06:23;6.40;;;2.75;;
77278;SDS011;66332;50.436;15.378;2024-03-25T03:11:03;8.00;;;2.88;;
77278;SDS011;66332;50.436;15.378;2024-03-25T03:15:44;7.32;;;2.42;;
77278;SDS011;66332;50.436;15.378;2024-03-25T03:20:25;6.80;;;2.42;;
77278;SDS011;66332;50.436;15.378;2024-03-25T03:25:06;8.93;;;2.97;;
77278;SDS011;66332;50.436;15.378;2024-03-25T03:29:47;8.70;;;3.20;;
77278;SDS011;66332;50.436;15.378;2024-03-25T03:34:28;7.07;;;2.63;;
77278;SDS011;66332;50.436;15.378;2024-03-25T03:39:08;8.60;;;3.10;;
77278;SDS011;66332;50.436;15.378;2024-03-25T03:43:49;6.10;;;2.75;;
77278;SDS011;66332;50.436;15.378;2024-03-25T03:48:30;6.50;;;2.72;;
77278;SDS011;66332;50.436;15.378;2024-03-25T03:53:11;4.47;;;1.65;;
77278;SDS011;66332;50.436;15.378;2024-03-25T03:57:52;6.28;;;2.70;;
77278;SDS011;66332;50.436;15.378;2024-03-25T04:02:32;7.03;;;2.70;;
77278;SDS011;66332;50.436;15.378;2024-03-25T04:07:13;5.18;;;2.25;;
77278;SDS011;66332;50.436;15.378;2024-03-25T04:11:54;6.35;;;2.42;;
77278;SDS011;66332;50.436;15.378;2024-03-25T04:16:35;6.40;;;2.50;;
77278;SDS011;66332;50.436;15.378;2024-03-25T04:21:16;8.63;;;3.45;;
77278;SDS011;66332;50.436;15.378;2024-03-25T04:26:00;7.10;;;2.67;;
77278;SDS011;66332;50.436;15.378;2024-03-25T04:30:41;6.40;;;2.97;;
77278;SDS011;66332;50.436;15.378;2024-03-25T04:35:22;6.65;;;2.50;;
77278;SDS011;66332;50.436;15.378;2024-03-25T04:40:02;5.65;;;2.10;;
77278;SDS011;66332;50.436;15.378;2024-03-25T04:44:43;4.35;;;1.70;;
77278;SDS011;66332;50.436;15.378;2024-03-25T04:49:24;5.97;;;2.20;;
77278;SDS011;66332;50.436;15.378;2024-03-25T04:54:06;5.43;;;1.98;;
77278;SDS011;66332;50.436;15.378;2024-03-25T04:58:47;5.68;;;2.10;;
77278;SDS011;66332;50.436;15.378;2024-03-25T05:03:27;5.32;;;1.83;;
77278;SDS011;66332;50.436;15.378;2024-03-25T05:08:08;5.75;;;2.13;;
77278;SDS011;66332;50.436;15.378;2024-03-25T05:12:49;4.78;;;1.83;;
77278;SDS011;66332;50.436;15.378;2024-03-25T05:17:30;5.78;;;2.45;;
77278;SDS011;66332;50.436;15.378;2024-03-25T05:22:11;6.00;;;2.22;;
77278;SDS011;66332;50.436;15.378;2024-03-25T05:26:51;5.85;;;2.10;;
77278;SDS011;66332;50.436;15.378;2024-03-25T05:31:32;5.82;;;2.28;;
77278;SDS011;66332;50.436;15.378;2024-03-25T05:36:13;5.53;;;2.03;;
77278;SDS011;66332;50.436;15.378;2024-03-25T05:40:54;6.18;;;2.28;;
77278;SDS011;66332;50.436;15.378;2024-03-25T05:45:35;4.78;;;1.90;;
77278;SDS011;66332;50.436;15.378;2024-03-25T05:50:17;5.65;;;1.90;;
77278;SDS011;66332;50.436;15.378;2024-03-25T05:54:57;4.70;;;1.70;;
77278;SDS011;66332;50.436;15.378;2024-03-25T05:59:38;5.20;;;2.00;;
77278;SDS011;66332;50.436;15.378;2024-03-25T06:04:19;5.03;;;1.88;;
77278;SDS011;66332;50.436;15.378;2024-03-25T06:09:00;5.35;;;2.15;;
77278;SDS011;66332;50.436;15.378;2024-03-25T06:13:41;6.03;;;2.40;;
77278;SDS011;66332;50.436;15.378;2024-03-25T06:18:22;5.75;;;1.80;;
77278;SDS011;66332;50.436;15.378;2024-03-25T06:23:03;5.05;;;1.92;;
77278;SDS011;66332;50.436;15.378;2024-03-25T06:27:44;4.97;;;2.20;;
77278;SDS011;66332;50.436;15.378;2024-03-25T06:32:25;4.43;;;1.65;;
77278;SDS011;66332;50.436;15.378;2024-03-25T06:37:24;4.70;;;1.55;;
77278;SDS011;66332;50.436;15.378;2024-03-25T06:42:05;6.32;;;1.90;;
77278;SDS011;66332;50.436;15.378;2024-03-25T06:46:46;4.47;;;1.60;;
77278;SDS011;66332;50.436;15.378;2024-03-25T06:51:27;3.58;;;1.38;;
77278;SDS011;66332;50.436;15.378;2024-03-25T06:56:08;4.78;;;1.75;;
77278;SDS011;66332;50.436;15.378;2024-03-25T07:00:49;5.15;;;1.63;;
77278;SDS011;66332;50.436;15.378;2024-03-25T07:05:30;5.32;;;1.90;;
77278;SDS011;66332;50.436;15.378;2024-03-25T07:10:12;5.88;;;2.08;;
77278;SDS011;66332;50.436;15.378;2024-03-25T07:14:53;4.78;;;1.80;;
77278;SDS011;66332;50.436;15.378;2024-03-25T07:19:33;5.13;;;1.80;;
77278;SDS011;66332;50.436;15.378;2024-03-25T07:24:14;8.48;;;2.03;;
77278;SDS011;66332;50.436;15.378;2024-03-25T07:28:55;6.65;;;2.20;;
77278;SDS011;66332;50.436;15.378;2024-03-25T07:33:36;5.70;;;1.95;;
77278;SDS011;66332;50.436;15.378;2024-03-25T07:38:17;7.25;;;2.30;;
77278;SDS011;66332;50.436;15.378;2024-03-25T07:42:58;6.22;;;1.88;;
77278;SDS011;66332;50.436;15.378;2024-03-25T07:47:38;7.07;;;2.45;;
77278;SDS011;66332;50.436;15.378;2024-03-25T07:52:19;8.13;;;2.85;;
77278;SDS011;66332;50.436;15.378;2024-03-25T07:57:00;7.65;;;2.67;;
77278;SDS011;66332;50.436;15.378;2024-03-25T08:01:41;6.90;;;2.67;;
77278;SDS011;66332;50.436;15.378;2024-03-25T08:06:21;7.35;;;2.50;;
77278;SDS011;66332;50.436;15.378;2024-03-25T08:11:02;4.78;;;1.58;;
77278;SDS011;66332;50.436;15.378;2024-03-25T08:15:43;4.57;;;1.80;;
77278;SDS011;66332;50.436;15.378;2024-03-25T08:20:24;4.53;;;1.50;;
77278;SDS011;66332;50.436;15.378;2024-03-25T08:25:05;5.43;;;1.45;;
77278;SDS011;66332;50.436;15.378;2024-03-25T08:29:46;5.28;;;1.73;;
77278;SDS011;66332;50.436;15.378;2024-03-25T08:34:27;5.47;;;1.77;;
77278;SDS011;66332;50.436;15.378;2024-03-25T08:39:07;5.10;;;1.60;;
77278;SDS011;66332;50.436;15.378;2024-03-25T08:43:48;4.63;;;1.43;;
77278;SDS011;66332;50.436;15.378;2024-03-25T08:48:29;4.88;;;1.65;;
77278;SDS011;66332;50.436;15.378;2024-03-25T08:53:10;6.07;;;1.70;;
77278;SDS011;66332;50.436;15.378;2024-03-25T08:57:51;5.05;;;1.85;;
77278;SDS011;66332;50.436;15.378;2024-03-25T09:02:32;5.28;;;1.83;;
77278;SDS011;66332;50.436;15.378;2024-03-25T09:11:55;6.28;;;2.03;;
77278;SDS011;66332;50.436;15.378;2024-03-25T09:16:35;5.90;;;2.20;;
77278;SDS011;66332;50.436;15.378;2024-03-25T09:21:16;6.28;;;2.17;;
77278;SDS011;66332;50.436;15.378;2024-03-25T09:25:57;5.80;;;2.22;;
77278;SDS011;66332;50.436;15.378;2024-03-25T09:30:38;7.03;;;2.30;;
77278;SDS011;66332;50.436;15.378;2024-03-25T09:35:20;5.30;;;2.00;;
77278;SDS011;66332;50.436;15.378;2024-03-25T09:40:00;6.68;;;2.22;;
77278;SDS011;66332;50.436;15.378;2024-03-25T09:44:42;5.70;;;2.10;;
77278;SDS011;66332;50.436;15.378;2024-03-25T09:49:23;5.35;;;1.80;;
77278;SDS011;66332;50.436;15.378;2024-03-25T09:54:06;5.03;;;1.70;;
77278;SDS011;66332;50.436;15.378;2024-03-25T09:58:46;5.13;;;1.80;;
77278;SDS011;66332;50.436;15.378;2024-03-25T10:03:27;5.32;;;1.52;;
77278;SDS011;66332;50.436;15.378;2024-03-25T10:08:08;5.57;;;1.85;;
77278;SDS011;66332;50.436;15.378;2024-03-25T10:12:50;4.72;;;1.63;;
77278;SDS011;66332;50.436;15.378;2024-03-25T10:17:31;5.53;;;1.60;;
77278;SDS011;66332;50.436;15.378;2024-03-25T10:22:12;7.32;;;2.00;;
77278;SDS011;66332;50.436;15.378;2024-03-25T10:26:53;5.13;;;1.70;;
77278;SDS011;66332;50.436;15.378;2024-03-25T10:31:37;5.88;;;1.98;;
77278;SDS011;66332;50.436;15.378;2024-03-25T10:36:19;5.07;;;1.73;;
77278;SDS011;66332;50.436;15.378;2024-03-25T10:41:01;5.72;;;1.95;;
77278;SDS011;66332;50.436;15.378;2024-03-25T10:45:49;6.78;;;2.05;;
77278;SDS011;66332;50.436;15.378;2024-03-25T10:50:35;6.05;;;1.70;;
77278;SDS011;66332;50.436;15.378;2024-03-25T10:55:18;4.95;;;1.63;;
77278;SDS011;66332;50.436;15.378;2024-03-25T11:00:00;5.15;;;1.80;;
77278;SDS011;66332;50.436;15.378;2024-03-25T11:04:42;6.07;;;1.92;;
77278;SDS011;66332;50.436;15.378;2024-03-25T11:14:15;5.85;;;2.03;;
77278;SDS011;66332;50.436;15.378;2024-03-25T11:19:02;5.80;;;2.30;;
77278;SDS011;66332;50.436;15.378;2024-03-25T11:23:44;5.68;;;1.98;;
77278;SDS011;66332;50.436;15.378;2024-03-25T11:28:28;6.03;;;2.35;;
77278;SDS011;66332;50.436;15.378;2024-03-25T11:33:09;5.53;;;2.03;;
77278;SDS011;66332;50.436;15.378;2024-03-25T11:37:50;5.53;;;1.92;;
77278;SDS011;66332;50.436;15.378;2024-03-25T11:42:32;5.50;;;2.20;;
77278;SDS011;66332;50.436;15.378;2024-03-25T11:47:13;5.60;;;2.55;;
77278;SDS011;66332;50.436;15.378;2024-03-25T11:51:54;5.85;;;2.38;;
77278;SDS011;66332;50.436;15.378;2024-03-25T11:56:35;7.22;;;2.03;;
77278;SDS011;66332;50.436;15.378;2024-03-25T12:01:20;6.03;;;2.00;;
77278;SDS011;66332;50.436;15.378;2024-03-25T12:06:01;5.40;;;1.92;;
77278;SDS011;66332;50.436;15.378;2024-03-25T12:10:42;6.28;;;1.92;;
77278;SDS011;66332;50.436;15.378;2024-03-25T12:15:42;5.43;;;1.80;;
77278;SDS011;66332;50.436;15.378;2024-03-25T12:20:23;5.57;;;1.80;;
77278;SDS011;66332;50.436;15.378;2024-03-25T12:25:06;4.85;;;1.70;;
77278;SDS011;66332;50.436;15.378;2024-03-25T12:29:56;4.80;;;1.83;;
77278;SDS011;66332;50.436;15.378;2024-03-25T12:34:47;5.70;;;2.00;;
77278;SDS011;66332;50.436;15.378;2024-03-25T12:39:28;5.53;;;2.00;;
77278;SDS011;66332;50.436;15.378;2024-03-25T12:48:52;5.70;;;1.90;;
77278;SDS011;66332;50.436;15.378;2024-03-25T12:53:33;5.60;;;1.85;;
77278;SDS011;66332;50.436;15.378;2024-03-25T12:58:14;5.25;;;2.10;;
77278;SDS011;66332;50.436;15.378;2024-03-25T13:02:55;5.13;;;1.90;;
77278;SDS011;66332;50.436;15.378;2024-03-25T13:07:36;6.07;;;2.38;;
77278;SDS011;66332;50.436;15.378;2024-03-25T13:12:17;6.47;;;2.50;;
77278;SDS011;66332;50.436;15.378;2024-03-25T13:16:58;7.50;;;2.72;;
77278;SDS011;66332;50.436;15.378;2024-03-25T13:21:38;6.00;;;1.90;;
77278;SDS011;66332;50.436;15.378;2024-03-25T13:26:19;5.38;;;1.80;;
77278;SDS011;66332;50.436;15.378;2024-03-25T13:31:00;6.13;;;2.38;;
77278;SDS011;66332;50.436;15.378;2024-03-25T13:35:40;5.85;;;1.77;;
77278;SDS011;66332;50.436;15.378;2024-03-25T13:40:21;6.15;;;1.80;;
77278;SDS011;66332;50.436;15.378;2024-03-25T13:45:03;4.75;;;1.88;;
77278;SDS011;66332;50.436;15.378;2024-03-25T13:49:44;6.07;;;1.83;;
77278;SDS011;66332;50.436;15.378;2024-03-25T13:54:28;4.95;;;1.73;;
77278;SDS011;66332;50.436;15.378;2024-03-25T13:59:10;5.10;;;1.92;;
77278;SDS011;66332;50.436;15.378;2024-03-25T14:03:51;5.72;;;2.05;;
77278;SDS011;66332;50.436;15.378;2024-03-25T14:08:32;4.78;;;1.65;;
77278;SDS011;66332;50.436;15.378;2024-03-25T14:13:13;5.95;;;1.60;;
77278;SDS011;66332;50.436;15.378;2024-03-25T14:17:54;4.90;;;1.50;;
77278;SDS011;66332;50.436;15.378;2024-03-25T14:22:34;4.85;;;1.83;;
77278;SDS011;66332;50.436;15.378;2024-03-25T14:27:15;5.32;;;1.55;;
77278;SDS011;66332;50.436;15.378;2024-03-25T14:31:56;5.47;;;1.70;;
77278;SDS011;66332;50.436;15.378;2024-03-25T14:36:36;5.33;;;1.80;;
77278;SDS011;66332;50.436;15.378;2024-03-25T14:41:20;5.63;;;1.90;;
77278;SDS011;66332;50.436;15.378;2024-03-25T14:46:02;5.32;;;1.90;;
77278;SDS011;66332;50.436;15.378;2024-03-25T14:50:43;5.72;;;1.85;;
77278;SDS011;66332;50.436;15.378;2024-03-25T14:55:24;5.60;;;1.92;;
77278;SDS011;66332;50.436;15.378;2024-03-25T15:00:05;5.25;;;2.10;;
77278;SDS011;66332;50.436;15.378;2024-03-25T15:04:47;5.78;;;2.20;;
77278;SDS011;66332;50.436;15.378;2024-03-25T15:09:32;5.15;;;1.90;;
77278;SDS011;66332;50.436;15.378;2024-03-25T15:14:13;4.88;;;1.80;;
77278;SDS011;66332;50.436;15.378;2024-03-25T15:18:54;4.70;;;1.77;;
77278;SDS011;66332;50.436;15.378;2024-03-25T15:23:34;5.00;;;1.75;;
77278;SDS011;66332;50.436;15.378;2024-03-25T15:28:15;5.75;;;1.80;;
77278;SDS011;66332;50.436;15.378;2024-03-25T15:32:56;6.22;;;1.95;;
77278;SDS011;66332;50.436;15.378;2024-03-25T15:37:37;4.70;;;1.90;;
77278;SDS011;66332;50.436;15.378;2024-03-25T15:42:18;5.32;;;1.95;;
77278;SDS011;66332;50.436;15.378;2024-03-25T15:47:00;6.32;;;2.28;;
77278;SDS011;66332;50.436;15.378;2024-03-25T15:51:40;5.78;;;2.10;;
77278;SDS011;66332;50.436;15.378;2024-03-25T15:56:21;5.20;;;1.90;;
77278;SDS011;66332;50.436;15.378;2024-03-25T16:01:02;6.97;;;2.45;;
77278;SDS011;66332;50.436;15.378;2024-03-25T16:05:43;6.32;;;2.28;;
77278;SDS011;66332;50.436;15.378;2024-03-25T16:10:26;6.68;;;2.05;;
77278;SDS011;66332;50.436;15.378;2024-03-25T16:15:10;5.22;;;2.03;;
77278;SDS011;66332;50.436;15.378;2024-03-25T16:19:51;6.40;;;2.20;;
77278;SDS011;66332;50.436;15.378;2024-03-25T16:24:32;6.28;;;2.22;;
77278;SDS011;66332;50.436;15.378;2024-03-25T16:29:13;7.45;;;2.55;;
77278;SDS011;66332;50.436;15.378;2024-03-25T16:33:54;5.45;;;2.13;;
77278;SDS011;66332;50.436;15.378;2024-03-25T16:38:35;6.15;;;2.22;;
77278;SDS011;66332;50.436;15.378;2024-03-25T16:43:17;5.75;;;2.17;;
77278;SDS011;66332;50.436;15.378;2024-03-25T16:47:58;5.18;;;2.10;;
77278;SDS011;66332;50.436;15.378;2024-03-25T16:52:41;5.78;;;2.17;;
77278;SDS011;66332;50.436;15.378;2024-03-25T16:57:24;5.38;;;2.45;;
77278;SDS011;66332;50.436;15.378;2024-03-25T17:02:05;5.70;;;2.50;;
77278;SDS011;66332;50.436;15.378;2024-03-25T17:06:46;6.32;;;2.40;;
77278;SDS011;66332;50.436;15.378;2024-03-25T17:11:27;6.35;;;2.17;;
77278;SDS011;66332;50.436;15.378;2024-03-25T17:16:09;6.68;;;2.75;;
77278;SDS011;66332;50.436;15.378;2024-03-25T17:20:51;8.77;;;3.58;;
77278;SDS011;66332;50.436;15.378;2024-03-25T17:25:38;44.17;;;14.20;;
77278;SDS011;66332;50.436;15.378;2024-03-25T17:30:19;16.27;;;5.65;;
77278;SDS011;66332;50.436;15.378;2024-03-25T17:35:00;20.65;;;7.00;;
77278;SDS011;66332;50.436;15.378;2024-03-25T17:39:41;11.07;;;3.67;;
77278;SDS011;66332;50.436;15.378;2024-03-25T17:44:23;7.03;;;2.70;;
77278;SDS011;66332;50.436;15.378;2024-03-25T17:49:04;8.60;;;3.55;;
77278;SDS011;66332;50.436;15.378;2024-03-25T17:53:45;7.82;;;3.80;;
77278;SDS011;66332;50.436;15.378;2024-03-25T17:58:25;92.50;;;34.28;;
77278;SDS011;66332;50.436;15.378;2024-03-25T18:03:07;42.45;;;24.48;;
77278;SDS011;66332;50.436;15.378;2024-03-25T18:07:47;32.90;;;15.40;;
77278;SDS011;66332;50.436;15.378;2024-03-25T18:12:28;23.15;;;9.73;;
77278;SDS011;66332;50.436;15.378;2024-03-25T18:17:09;10.20;;;5.38;;
77278;SDS011;66332;50.436;15.378;2024-03-25T18:21:50;10.75;;;4.95;;
77278;SDS011;66332;50.436;15.378;2024-03-25T18:26:31;7.78;;;3.65;;
77278;SDS011;66332;50.436;15.378;2024-03-25T18:31:12;8.50;;;3.78;;
77278;SDS011;66332;50.436;15.378;2024-03-25T18:35:53;10.00;;;4.97;;
77278;SDS011;66332;50.436;15.378;2024-03-25T18:40:34;8.68;;;3.60;;
77278;SDS011;66332;50.436;15.378;2024-03-25T18:45:15;9.85;;;4.38;;
77278;SDS011;66332;50.436;15.378;2024-03-25T18:49:55;10.98;;;4.93;;
77278;SDS011;66332;50.436;15.378;2024-03-25T18:54:36;10.57;;;5.07;;
77278;SDS011;66332;50.436;15.378;2024-03-25T18:59:17;12.95;;;5.88;;
77278;SDS011;66332;50.436;15.378;2024-03-25T19:03:58;13.65;;;6.15;;
77278;SDS011;66332;50.436;15.378;2024-03-25T19:08:39;20.63;;;9.45;;
77278;SDS011;66332;50.436;15.378;2024-03-25T19:13:20;19.42;;;9.02;;
77278;SDS011;66332;50.436;15.378;2024-03-25T19:18:02;14.50;;;6.93;;
77278;SDS011;66332;50.436;15.378;2024-03-25T19:22:42;14.93;;;6.32;;
77278;SDS011;66332;50.436;15.378;2024-03-25T19:27:23;15.70;;;7.95;;
77278;SDS011;66332;50.436;15.378;2024-03-25T19:32:04;15.00;;;6.60;;
77278;SDS011;66332;50.436;15.378;2024-03-25T19:36:45;15.57;;;7.15;;
77278;SDS011;66332;50.436;15.378;2024-03-25T19:41:26;13.90;;;6.80;;
77278;SDS011;66332;50.436;15.378;2024-03-25T19:46:10;15.75;;;7.15;;
77278;SDS011;66332;50.436;15.378;2024-03-25T19:50:50;16.70;;;7.57;;
77278;SDS011;66332;50.436;15.378;2024-03-25T19:55:31;15.45;;;7.30;;
77278;SDS011;66332;50.436;15.378;2024-03-25T20:00:12;13.95;;;6.57;;
77278;SDS011;66332;50.436;15.378;2024-03-25T20:04:54;15.63;;;7.15;;
77278;SDS011;66332;50.436;15.378;2024-03-25T20:09:35;13.88;;;6.65;;
77278;SDS011;66332;50.436;15.378;2024-03-25T20:14:16;14.32;;;6.65;;
77278;SDS011;66332;50.436;15.378;2024-03-25T20:18:57;19.35;;;9.13;;
77278;SDS011;66332;50.436;15.378;2024-03-25T20:23:38;16.40;;;7.47;;
77278;SDS011;66332;50.436;15.378;2024-03-25T20:28:19;15.60;;;7.90;;
77278;SDS011;66332;50.436;15.378;2024-03-25T20:33:00;16.35;;;7.32;;
77278;SDS011;66332;50.436;15.378;2024-03-25T20:37:42;20.88;;;8.88;;
77278;SDS011;66332;50.436;15.378;2024-03-25T20:42:22;23.55;;;11.13;;
77278;SDS011;66332;50.436;15.378;2024-03-25T20:47:03;18.40;;;9.00;;
77278;SDS011;66332;50.436;15.378;2024-03-25T20:51:44;17.13;;;8.32;;
77278;SDS011;66332;50.436;15.378;2024-03-25T20:56:25;16.55;;;7.95;;
77278;SDS011;66332;50.436;15.378;2024-03-25T21:01:06;14.95;;;7.78;;
77278;SDS011;66332;50.436;15.378;2024-03-25T21:05:54;16.95;;;7.78;;
77278;SDS011;66332;50.436;15.378;2024-03-25T21:10:38;17.25;;;8.43;;
77278;SDS011;66332;50.436;15.378;2024-03-25T21:15:18;18.05;;;7.97;;
77278;SDS011;66332;50.436;15.378;2024-03-25T21:19:59;17.15;;;7.90;;
77278;SDS011;66332;50.436;15.378;2024-03-25T21:24:40;16.40;;;7.65;;
77278;SDS011;66332;50.436;15.378;2024-03-25T21:29:22;16.70;;;8.50;;
77278;SDS011;66332;50.436;15.378;2024-03-25T21:34:03;15.93;;;8.30;;
77278;SDS011;66332;50.436;15.378;2024-03-25T21:38:44;16.90;;;7.70;;
77278;SDS011;66332;50.436;15.378;2024-03-25T21:43:25;13.68;;;6.85;;
77278;SDS011;66332;50.436;15.378;2024-03-25T21:48:06;15.60;;;6.70;;
77278;SDS011;66332;50.436;15.378;2024-03-25T21:52:47;15.00;;;7.15;;
77278;SDS011;66332;50.436;15.378;2024-03-25T21:57:28;13.55;;;6.15;;
77278;SDS011;66332;50.436;15.378;2024-03-25T22:02:09;19.73;;;8.10;;
77278;SDS011;66332;50.436;15.378;2024-03-25T22:06:50;16.48;;;7.55;;
77278;SDS011;66332;50.436;15.378;2024-03-25T22:11:31;18.25;;;8.50;;
77278;SDS011;66332;50.436;15.378;2024-03-25T22:16:11;17.83;;;7.70;;
77278;SDS011;66332;50.436;15.378;2024-03-25T22:20:52;12.70;;;6.78;;
77278;SDS011;66332;50.436;15.378;2024-03-25T22:25:34;15.15;;;7.80;;
77278;SDS011;66332;50.436;15.378;2024-03-25T22:30:15;14.85;;;6.65;;
77278;SDS011;66332;50.436;15.378;2024-03-25T22:34:56;14.55;;;6.20;;
77278;SDS011;66332;50.436;15.378;2024-03-25T22:39:37;16.00;;;7.30;;
77278;SDS011;66332;50.436;15.378;2024-03-25T22:44:20;14.43;;;6.40;;
77278;SDS011;66332;50.436;15.378;2024-03-25T22:49:01;13.25;;;6.25;;
77278;SDS011;66332;50.436;15.378;2024-03-25T22:53:42;14.88;;;6.45;;
77278;SDS011;66332;50.436;15.378;2024-03-25T22:58:23;13.20;;;6.45;;
77278;SDS011;66332;50.436;15.378;2024-03-25T23:03:04;14.80;;;5.60;;
77278;SDS011;66332;50.436;15.378;2024-03-25T23:07:45;13.85;;;7.13;;
77278;SDS011;66332;50.436;15.378;2024-03-25T23:12:26;15.80;;;6.13;;
77278;SDS011;66332;50.436;15.378;2024-03-25T23:17:07;13.98;;;6.35;;
77278;SDS011;66332;50.436;15.378;2024-03-25T23:21:47;16.00;;;6.72;;
77278;SDS011;66332;50.436;15.378;2024-03-25T23:26:28;16.38;;;7.10;;
77278;SDS011;66332;50.436;15.378;2024-03-25T23:31:09;15.60;;;6.82;;
77278;SDS011;66332;50.436;15.378;2024-03-25T23:35:50;16.90;;;7.00;;
77278;SDS011;66332;50.436;15.378;2024-03-25T23:40:30;13.43;;;6.38;;
77278;SDS011;66332;50.436;15.378;2024-03-25T23:45:11;19.45;;;9.60;;
77278;SDS011;66332;50.436;15.378;2024-03-25T23:49:52;12.98;;;5.53;;
77278;SDS011;66332;50.436;15.378;2024-03-25T23:54:33;11.43;;;5.15;;
77278;SDS011;66332;50.436;15.378;2024-03-25T23:59:14;13.00;;;6.70;;
